createdAt,value
2019-02-08T00:00:47.472Z,15.07
2019-02-08T00:03:51.056Z,15.13
2019-02-08T00:06:54.447Z,13.73
2019-02-08T00:09:57.989Z,15.57
2019-02-08T00:13:01.447Z,14.47
2019-02-08T00:16:04.784Z,15.17
2019-02-08T00:19:08.376Z,14.73
2019-02-08T00:22:11.643Z,15.00
2019-02-08T00:25:15.280Z,14.40
2019-02-08T00:28:18.758Z,14.33
2019-02-08T00:31:22.256Z,14.20
2019-02-08T00:34:25.695Z,14.33
2019-02-08T00:37:29.188Z,13.80
2019-02-08T00:40:32.699Z,13.33
2019-02-08T00:43:36.263Z,13.37
2019-02-08T00:46:40.596Z,12.90
2019-02-08T00:49:44.032Z,12.73
2019-02-08T00:52:47.758Z,12.80
2019-02-08T00:55:51.132Z,12.93
2019-02-08T00:58:54.492Z,13.17
2019-02-08T01:01:58.303Z,12.67
2019-02-08T01:05:01.716Z,12.13
2019-02-08T01:08:05.431Z,12.47
2019-02-08T01:11:08.711Z,12.37
2019-02-08T01:14:12.104Z,12.63
2019-02-08T01:17:15.408Z,10.83
2019-02-08T01:20:19.555Z,11.13
2019-02-08T01:23:23.023Z,10.80
2019-02-08T01:26:26.324Z,12.27
2019-02-08T01:29:29.608Z,12.67
2019-02-08T01:32:33.124Z,11.73
2019-02-08T01:35:36.667Z,11.57
2019-02-08T01:38:40.024Z,11.70
2019-02-08T01:41:43.220Z,11.87
2019-02-08T01:44:46.716Z,12.97
2019-02-08T01:48:11.116Z,12.40
2019-02-08T01:51:14.513Z,11.97
2019-02-08T01:54:17.811Z,11.53
2019-02-08T01:57:21.106Z,11.13
2019-02-08T02:00:32.275Z,11.67
2019-02-08T02:03:35.692Z,12.43
2019-02-08T02:06:40.220Z,11.27
2019-02-08T02:09:43.511Z,11.53
2019-02-08T02:12:46.911Z,9.97
2019-02-08T02:15:50.247Z,11.13
2019-02-08T02:18:53.764Z,12.13
2019-02-08T02:21:57.959Z,10.33
2019-02-08T02:25:01.233Z,10.60
2019-02-08T02:28:04.952Z,12.00
2019-02-08T02:31:08.444Z,12.03
2019-02-08T02:34:11.944Z,10.47
2019-02-08T02:37:15.345Z,10.67
2019-02-08T02:40:19.445Z,11.83
2019-02-08T02:43:22.907Z,12.23
2019-02-08T02:46:26.413Z,10.47
2019-02-08T02:49:29.967Z,11.57
2019-02-08T02:52:33.309Z,12.27
2019-02-08T02:55:37.728Z,12.63
2019-02-08T02:58:41.117Z,12.13
2019-02-08T03:01:44.527Z,11.87
2019-02-08T03:04:47.983Z,11.33
2019-02-08T03:07:51.428Z,11.60
2019-02-08T03:10:54.827Z,11.93
2019-02-08T03:13:58.191Z,11.37
2019-02-08T03:17:01.523Z,11.87
2019-02-08T03:20:06.516Z,11.30
2019-02-08T03:23:10.074Z,12.77
2019-02-08T03:26:13.571Z,12.07
2019-02-08T03:29:16.967Z,12.13
2019-02-08T03:32:20.433Z,12.97
2019-02-08T03:35:24.135Z,12.50
2019-02-08T03:38:27.675Z,13.37
2019-02-08T03:41:31.190Z,11.83
2019-02-08T03:44:34.748Z,13.43
2019-02-08T03:47:38.196Z,11.67
2019-02-08T03:50:41.652Z,13.47
2019-02-08T03:53:45.012Z,12.87
2019-02-08T03:56:48.388Z,13.30
2019-02-08T03:59:51.753Z,13.20
2019-02-08T04:02:55.155Z,14.17
2019-02-08T04:05:58.548Z,13.77
2019-02-08T04:09:02.625Z,13.10
2019-02-08T04:12:07.245Z,14.47
2019-02-08T04:15:13.354Z,14.17
2019-02-08T04:18:16.760Z,13.93
2019-02-08T04:21:20.196Z,13.13
2019-02-08T04:24:29.750Z,12.80
2019-02-08T04:27:28.816Z,13.13
2019-02-08T04:30:32.308Z,14.17
2019-02-08T04:33:35.708Z,13.93
2019-02-08T04:36:39.346Z,14.33
2019-02-08T04:39:42.604Z,13.53
2019-02-08T04:42:46.008Z,14.30
2019-02-08T04:45:49.400Z,13.97
2019-02-08T04:48:52.955Z,15.03
2019-02-08T04:51:56.409Z,14.03
2019-02-08T04:54:59.813Z,15.17
2019-02-08T04:58:03.456Z,14.03
2019-02-08T05:01:07.016Z,14.67
2019-02-08T05:04:10.526Z,13.63
2019-02-08T05:07:14.036Z,14.73
2019-02-08T05:10:19.468Z,14.93
2019-02-08T05:13:23.013Z,15.00
2019-02-08T05:16:26.476Z,15.40
2019-02-08T05:19:30.209Z,16.40
2019-02-08T05:22:33.724Z,16.17
2019-02-08T05:25:37.292Z,16.07
2019-02-08T05:28:40.631Z,15.87
2019-02-08T05:31:44.148Z,15.90
2019-02-08T05:34:47.606Z,15.33
2019-02-08T05:37:51.157Z,14.57
2019-02-08T05:40:55.647Z,15.27
2019-02-08T05:43:59.008Z,15.17
2019-02-08T05:47:02.372Z,14.67
2019-02-08T05:50:07.569Z,14.60
2019-02-08T05:53:11.104Z,13.80
2019-02-08T05:56:14.468Z,13.40
2019-02-08T05:59:17.909Z,14.47
2019-02-08T06:02:21.509Z,13.40
2019-02-08T06:05:25.378Z,13.87
2019-02-08T06:08:28.924Z,13.93
2019-02-08T06:11:33.057Z,12.90
2019-02-08T06:14:37.674Z,11.37
2019-02-08T06:17:41.172Z,12.30
2019-02-08T06:20:44.638Z,12.33
2019-02-08T06:23:48.185Z,13.73
2019-02-08T06:26:51.536Z,13.63
2019-02-08T06:29:54.937Z,12.33
2019-02-08T06:32:58.380Z,13.03
2019-02-08T06:36:01.745Z,12.03
2019-02-08T06:39:08.041Z,12.67
2019-02-08T06:42:11.412Z,13.40
2019-02-08T06:45:15.832Z,12.93
2019-02-08T06:48:19.436Z,12.03
2019-02-08T06:51:22.872Z,11.73
2019-02-08T06:54:26.232Z,11.30
2019-02-08T06:57:40.588Z,12.70
2019-02-08T07:01:07.771Z,12.30
2019-02-08T07:04:29.116Z,12.17
2019-02-08T07:07:51.904Z,11.37
2019-02-08T07:11:18.796Z,10.80
2019-02-08T07:14:32.429Z,12.20
2019-02-08T07:17:55.888Z,11.07
2019-02-08T07:21:15.040Z,10.40
2019-02-08T07:24:32.796Z,10.77
2019-02-08T07:27:41.876Z,11.57
2019-02-08T07:31:03.169Z,9.10
2019-02-08T07:34:37.900Z,9.50
2019-02-08T07:37:52.240Z,9.13
2019-02-08T07:41:24.543Z,9.13
2019-02-08T07:45:04.728Z,8.83
2019-02-08T07:48:24.460Z,8.27
2019-02-08T07:51:53.665Z,9.23
2019-02-08T07:55:26.176Z,8.80
2019-02-08T07:58:49.228Z,8.40
2019-02-08T08:02:14.414Z,9.60
2019-02-08T08:05:37.217Z,8.67
2019-02-08T08:08:59.021Z,8.27
2019-02-08T08:12:16.645Z,8.47
2019-02-08T08:15:37.388Z,8.70
2019-02-08T08:18:59.140Z,7.73
2019-02-08T08:22:26.042Z,5.80
2019-02-08T08:25:53.089Z,8.27
2019-02-08T08:29:04.681Z,7.70
2019-02-08T08:32:16.576Z,7.10
2019-02-08T08:36:07.998Z,8.10
2019-02-08T08:39:39.865Z,7.00
2019-02-08T08:43:08.698Z,7.20
2019-02-08T08:46:43.941Z,7.73
2019-02-08T08:50:49.873Z,7.07
2019-02-08T08:54:40.993Z,6.80
2019-02-08T08:58:45.220Z,5.08
2019-02-08T09:02:38.181Z,5.57
2019-02-08T09:06:09.332Z,6.47
2019-02-08T09:10:07.816Z,5.85
2019-02-08T09:13:55.870Z,6.60
2019-02-08T09:17:29.000Z,6.40
2019-02-08T09:21:06.768Z,6.07
2019-02-08T09:24:55.081Z,5.53
2019-02-08T09:28:38.356Z,5.28
2019-02-08T09:32:01.393Z,5.80
2019-02-08T09:35:48.994Z,5.40
2019-02-08T09:39:31.908Z,5.72
2019-02-08T09:43:25.873Z,4.63
2019-02-08T09:47:14.546Z,5.20
2019-02-08T09:51:11.482Z,5.55
2019-02-08T09:54:41.304Z,5.23
2019-02-08T09:58:34.836Z,5.12
2019-02-08T10:02:14.433Z,4.07
2019-02-08T10:05:55.364Z,3.95
2019-02-08T10:09:35.729Z,4.37
2019-02-08T10:13:19.324Z,4.20
2019-02-08T10:17:11.864Z,3.77
2019-02-08T10:20:58.279Z,3.98
2019-02-08T10:24:34.237Z,4.00
2019-02-08T10:28:13.278Z,3.27
2019-02-08T10:32:01.113Z,4.20
2019-02-08T10:35:48.562Z,3.80
2019-02-08T10:39:36.086Z,3.45
2019-02-08T10:43:13.475Z,4.15
2019-02-08T10:47:09.407Z,3.30
2019-02-08T10:50:47.528Z,3.62
2019-02-08T10:54:56.256Z,3.10
2019-02-08T10:58:49.869Z,3.00
2019-02-08T11:02:36.544Z,2.47
2019-02-08T11:06:16.196Z,2.40
2019-02-08T11:09:55.748Z,2.52
2019-02-08T11:13:48.548Z,2.35
2019-02-08T11:17:36.376Z,2.70
2019-02-08T11:20:39.773Z,2.52
2019-02-08T11:23:43.310Z,2.55
2019-02-08T11:26:46.874Z,3.05
2019-02-08T11:29:50.173Z,2.37
2019-02-08T11:32:53.684Z,2.20
2019-02-08T11:35:57.280Z,2.20
2019-02-08T11:39:00.720Z,2.52
2019-02-08T11:42:04.490Z,2.33
2019-02-08T11:45:08.400Z,2.72
2019-02-08T11:48:11.905Z,2.75
2019-02-08T11:51:15.407Z,2.80
2019-02-08T11:54:18.712Z,2.58
2019-02-08T11:57:22.220Z,2.47
2019-02-08T12:00:33.733Z,2.90
2019-02-08T12:03:37.304Z,2.33
2019-02-08T12:06:40.824Z,2.20
2019-02-08T12:09:44.209Z,2.17
2019-02-08T12:12:47.612Z,2.75
2019-02-08T12:15:51.153Z,2.77
2019-02-08T12:18:54.761Z,2.47
2019-02-08T12:21:58.216Z,3.08
2019-02-08T12:25:01.658Z,2.95
2019-02-08T12:28:05.217Z,3.22
2019-02-08T12:31:09.129Z,3.52
2019-02-08T12:34:13.445Z,2.87
2019-02-08T12:37:17.169Z,3.15
2019-02-08T12:40:20.709Z,2.72
2019-02-08T12:43:24.368Z,2.90
2019-02-08T12:46:27.670Z,3.87
2019-02-08T12:49:31.261Z,2.98
2019-02-08T12:52:34.681Z,2.83
2019-02-08T12:55:38.008Z,2.70
2019-02-08T12:58:41.369Z,2.72
2019-02-08T13:01:44.876Z,2.80
2019-02-08T13:04:48.309Z,3.42
2019-02-08T13:07:51.883Z,2.77
2019-02-08T13:10:55.420Z,2.95
2019-02-08T13:13:58.923Z,3.55
2019-02-08T13:17:02.491Z,3.15
2019-02-08T13:20:07.565Z,2.72
2019-02-08T13:23:11.129Z,3.12
2019-02-08T13:26:14.464Z,2.75
2019-02-08T13:29:18.068Z,2.65
2019-02-08T13:32:21.533Z,3.22
2019-02-08T13:35:25.280Z,2.90
2019-02-08T13:38:28.744Z,2.77
2019-02-08T13:41:32.040Z,2.70
2019-02-08T13:44:35.485Z,3.58
2019-02-08T13:47:38.941Z,2.67
2019-02-08T13:50:42.792Z,2.65
2019-02-08T13:53:46.154Z,2.70
2019-02-08T13:56:49.552Z,3.12
2019-02-08T13:59:52.992Z,3.00
2019-02-08T14:02:56.757Z,2.90
2019-02-08T14:06:00.266Z,3.27
2019-02-08T14:09:06.733Z,3.05
2019-02-08T14:12:29.469Z,2.85
2019-02-08T14:15:32.889Z,2.85
2019-02-08T14:18:36.114Z,3.83
2019-02-08T14:21:39.596Z,2.55
2019-02-08T14:24:42.987Z,3.10
2019-02-08T14:27:46.732Z,3.17
2019-02-08T14:30:50.094Z,3.15
2019-02-08T14:33:53.867Z,3.00
2019-02-08T14:36:57.976Z,3.10
2019-02-08T14:40:01.521Z,3.42
2019-02-08T14:43:06.397Z,3.50
2019-02-08T14:46:09.860Z,2.58
2019-02-08T14:49:13.260Z,2.80
2019-02-08T14:52:16.657Z,2.98
2019-02-08T14:55:20.160Z,3.02
2019-02-08T14:58:23.700Z,2.95
2019-02-08T15:01:27.268Z,2.87
2019-02-08T15:04:30.566Z,2.87
2019-02-08T15:07:33.865Z,3.00
2019-02-08T15:10:39.516Z,3.02
2019-02-08T15:13:44.041Z,2.65
2019-02-08T15:16:47.440Z,3.27
2019-02-08T15:19:50.843Z,2.87
2019-02-08T15:22:54.388Z,11.40
2019-02-08T15:25:57.845Z,2.70
2019-02-08T15:29:02.277Z,2.83
2019-02-08T15:32:05.665Z,2.60
2019-02-08T15:35:09.576Z,2.83
2019-02-08T15:38:14.044Z,3.05
2019-02-08T15:41:17.406Z,2.50
2019-02-08T15:44:20.812Z,2.72
2019-02-08T15:47:24.212Z,3.10
2019-02-08T15:50:27.718Z,2.50
2019-02-08T15:53:31.030Z,3.42
2019-02-08T15:56:34.608Z,3.65
2019-02-08T15:59:37.909Z,3.05
2019-02-08T16:02:41.404Z,2.72
2019-02-08T16:05:45.018Z,3.30
2019-02-08T16:08:48.312Z,3.27
2019-02-08T16:11:51.616Z,6.45
2019-02-08T16:14:54.932Z,3.20
2019-02-08T16:17:58.612Z,2.70
2019-02-08T16:21:02.157Z,2.30
2019-02-08T16:24:05.964Z,2.95
2019-02-08T16:27:09.430Z,4.42
2019-02-08T16:30:17.939Z,3.62
2019-02-08T16:33:21.553Z,3.85
2019-02-08T16:36:24.953Z,2.58
2019-02-08T16:39:28.397Z,2.90
2019-02-08T16:42:31.866Z,2.70
2019-02-08T16:45:35.392Z,2.55
2019-02-08T16:48:39.047Z,2.20
2019-02-08T16:51:42.465Z,2.50
2019-02-08T16:54:47.206Z,2.12
2019-02-08T16:57:51.123Z,2.27
2019-02-08T17:00:54.657Z,2.15
2019-02-08T17:03:58.054Z,2.47
2019-02-08T17:07:01.724Z,2.45
2019-02-08T17:10:07.313Z,2.20
2019-02-08T17:13:10.776Z,2.15
2019-02-08T17:16:14.602Z,2.20
2019-02-08T17:19:18.120Z,2.08
2019-02-08T17:22:21.480Z,2.00
2019-02-08T17:25:25.020Z,2.40
2019-02-08T17:28:29.305Z,2.08
2019-02-08T17:31:32.856Z,2.12
2019-02-08T17:34:36.356Z,2.15
2019-02-08T17:37:39.817Z,2.60
2019-02-08T17:40:44.688Z,2.15
2019-02-08T17:43:48.144Z,1.82
2019-02-08T17:46:51.549Z,1.90
2019-02-08T17:49:54.984Z,2.10
2019-02-08T17:52:58.557Z,1.98
2019-02-08T17:56:03.123Z,1.90
2019-02-08T17:59:06.480Z,2.25
2019-02-08T18:02:10.904Z,3.17
2019-02-08T18:05:14.558Z,2.30
2019-02-08T18:08:17.912Z,2.80
2019-02-08T18:11:21.308Z,4.97
2019-02-08T18:14:24.809Z,2.92
2019-02-08T18:17:28.110Z,2.87
2019-02-08T18:20:34.476Z,2.50
2019-02-08T18:23:39.040Z,2.35
2019-02-08T18:26:43.324Z,2.70
2019-02-08T18:29:46.725Z,3.25
2019-02-08T18:32:50.126Z,2.77
2019-02-08T18:35:53.708Z,3.08
2019-02-08T18:38:57.401Z,3.45
2019-02-08T18:42:00.818Z,2.52
2019-02-08T18:45:05.476Z,2.60
2019-02-08T18:48:09.576Z,4.60
2019-02-08T18:51:13.160Z,4.00
2019-02-08T18:54:16.658Z,2.47
2019-02-08T18:57:20.363Z,3.00
2019-02-08T19:00:26.053Z,2.60
2019-02-08T19:03:29.426Z,2.70
2019-02-08T19:06:33.128Z,4.70
2019-02-08T19:09:36.524Z,2.90
2019-02-08T19:12:40.132Z,2.60
2019-02-08T19:15:44.558Z,4.42
2019-02-08T19:18:48.284Z,2.80
2019-02-08T19:21:51.764Z,2.70
2019-02-08T19:24:55.165Z,3.75
2019-02-08T19:28:07.028Z,3.35
2019-02-08T19:31:11.568Z,2.63
2019-02-08T19:34:15.096Z,2.50
2019-02-08T19:37:18.597Z,2.35
2019-02-08T19:40:24.377Z,2.30
2019-02-08T19:43:27.934Z,3.67
2019-02-08T19:46:31.405Z,3.00
2019-02-08T19:49:34.953Z,2.98
2019-02-08T19:52:38.507Z,3.37
2019-02-08T19:55:42.289Z,2.47
2019-02-08T19:58:45.923Z,2.53
2019-02-08T20:01:49.428Z,2.58
2019-02-08T20:04:54.751Z,2.83
2019-02-08T20:07:58.469Z,2.87
2019-02-08T20:11:01.832Z,2.83
2019-02-08T20:14:05.325Z,2.90
2019-02-08T20:17:08.980Z,2.90
2019-02-08T20:20:12.445Z,3.13
2019-02-08T20:23:15.986Z,3.08
2019-02-08T20:26:19.345Z,3.50
2019-02-08T20:29:22.741Z,3.08
2019-02-08T20:32:26.185Z,3.25
2019-02-08T20:35:29.745Z,2.87
2019-02-08T20:38:33.292Z,3.13
2019-02-08T20:41:36.788Z,3.40
2019-02-08T20:44:40.253Z,3.10
2019-02-08T20:47:43.897Z,3.27
2019-02-08T20:50:47.576Z,5.08
2019-02-08T20:53:51.992Z,4.22
2019-02-08T20:56:58.904Z,2.87
2019-02-08T21:00:00.873Z,3.35
2019-02-08T21:03:06.736Z,3.27
2019-02-08T21:06:10.296Z,2.30
2019-02-08T21:09:14.210Z,2.98
2019-02-08T21:12:17.656Z,2.60
2019-02-08T21:15:21.616Z,2.47
2019-02-08T21:18:24.966Z,2.83
2019-02-08T21:21:28.549Z,2.70
2019-02-08T21:24:32.030Z,4.20
2019-02-08T21:27:35.437Z,2.80
2019-02-08T21:30:39.143Z,2.90
2019-02-08T21:33:42.681Z,3.08
2019-02-08T21:36:46.237Z,2.52
2019-02-08T21:39:49.747Z,3.20
2019-02-08T21:42:53.692Z,2.58
2019-02-08T21:45:57.261Z,3.47
2019-02-08T21:49:02.915Z,3.20
2019-02-08T21:52:08.309Z,2.95
2019-02-08T21:55:13.627Z,2.90
2019-02-08T21:58:18.841Z,3.30
2019-02-08T22:01:23.630Z,3.20
2019-02-08T22:04:27.199Z,3.67
2019-02-08T22:07:30.626Z,2.92
2019-02-08T22:10:33.988Z,3.20
2019-02-08T22:13:37.592Z,3.10
2019-02-08T22:16:41.192Z,3.70
2019-02-08T22:19:44.797Z,3.45
2019-02-08T22:22:48.240Z,3.47
2019-02-08T22:25:51.600Z,3.47
2019-02-08T22:28:55.104Z,3.52
2019-02-08T22:31:58.595Z,4.20
2019-02-08T22:35:01.901Z,3.77
2019-02-08T22:38:05.716Z,4.83
2019-02-08T22:41:09.216Z,4.60
2019-02-08T22:44:12.816Z,4.27
2019-02-08T22:47:16.421Z,4.10
2019-02-08T22:50:20.025Z,4.23
2019-02-08T22:53:23.433Z,4.00
2019-02-08T22:56:26.729Z,4.53
2019-02-08T22:59:30.124Z,4.47
2019-02-08T23:02:35.224Z,4.42
2019-02-08T23:05:45.337Z,4.47
2019-02-08T23:08:44.220Z,4.30
2019-02-08T23:11:47.509Z,5.23
2019-02-08T23:14:51.068Z,4.83
2019-02-08T23:17:54.522Z,4.97
2019-02-08T23:20:57.970Z,5.47
2019-02-08T23:24:01.520Z,4.87
2019-02-08T23:27:05.074Z,5.20
2019-02-08T23:30:09.548Z,4.90
2019-02-08T23:33:13.092Z,6.33
2019-02-08T23:36:16.460Z,5.10
2019-02-08T23:39:19.996Z,5.23
2019-02-08T23:42:23.664Z,5.67
2019-02-08T23:45:27.610Z,5.30
2019-02-08T23:48:32.195Z,5.37
2019-02-08T23:51:35.702Z,6.47
2019-02-08T23:54:39.141Z,5.40
2019-02-08T23:57:42.500Z,5.47
